sensor_id;sensor_type;location;lat;lon;timestamp;pressure;altitude;pressure_sealevel;temperature
77355;BMP280;66422;51.202;19.936;2023-06-10T00:10:16;99198.05;;;19.91
77355;BMP280;66422;51.202;19.936;2023-06-10T00:25:36;99198.96;;;19.81
77355;BMP280;66422;51.202;19.936;2023-06-10T00:40:55;99212.50;;;19.64
77355;BMP280;66422;51.202;19.936;2023-06-10T00:56:15;99222.58;;;19.31
77355;BMP280;66422;51.202;19.936;2023-06-10T01:11:47;99237.53;;;18.97
77355;BMP280;66422;51.202;19.936;2023-06-10T01:27:12;99245.95;;;18.85
77355;BMP280;66422;51.202;19.936;2023-06-10T01:42:33;99241.20;;;18.62
77355;BMP280;66422;51.202;19.936;2023-06-10T01:57:53;99256.34;;;18.80
77355;BMP280;66422;51.202;19.936;2023-06-10T02:13:13;99266.86;;;18.78
77355;BMP280;66422;51.202;19.936;2023-06-10T02:28:32;99273.17;;;18.76
77355;BMP280;66422;51.202;19.936;2023-06-10T02:43:52;99268.84;;;18.87
77355;BMP280;66422;51.202;19.936;2023-06-10T02:59:12;99271.38;;;19.08
77355;BMP280;66422;51.202;19.936;2023-06-10T03:14:32;99280.01;;;19.01
77355;BMP280;66422;51.202;19.936;2023-06-10T03:29:54;99286.98;;;19.14
77355;BMP280;66422;51.202;19.936;2023-06-10T03:45:14;99289.81;;;19.19
77355;BMP280;66422;51.202;19.936;2023-06-10T04:00:34;99301.90;;;19.00
77355;BMP280;66422;51.202;19.936;2023-06-10T04:16:02;99313.17;;;19.37
77355;BMP280;66422;51.202;19.936;2023-06-10T04:31:21;99316.41;;;20.14
77355;BMP280;66422;51.202;19.936;2023-06-10T04:46:42;99314.67;;;20.51
77355;BMP280;66422;51.202;19.936;2023-06-10T05:02:04;99328.92;;;20.30
77355;BMP280;66422;51.202;19.936;2023-06-10T05:17:24;99347.67;;;20.51
77355;BMP280;66422;51.202;19.936;2023-06-10T05:32:44;99356.89;;;20.65
77355;BMP280;66422;51.202;19.936;2023-06-10T05:48:04;99395.83;;;22.05
77355;BMP280;66422;51.202;19.936;2023-06-10T06:03:24;99407.17;;;24.17
77355;BMP280;66422;51.202;19.936;2023-06-10T06:18:43;99411.17;;;23.36
77355;BMP280;66422;51.202;19.936;2023-06-10T06:34:03;99433.70;;;24.21
77355;BMP280;66422;51.202;19.936;2023-06-10T06:49:23;99400.53;;;23.11
77355;BMP280;66422;51.202;19.936;2023-06-10T07:04:42;99421.20;;;23.37
77355;BMP280;66422;51.202;19.936;2023-06-10T07:20:02;99421.88;;;24.88
77355;BMP280;66422;51.202;19.936;2023-06-10T07:35:22;99420.70;;;25.57
77355;BMP280;66422;51.202;19.936;2023-06-10T07:50:42;99425.39;;;25.55
77355;BMP280;66422;51.202;19.936;2023-06-10T08:06:02;99416.36;;;25.88
77355;BMP280;66422;51.202;19.936;2023-06-10T08:21:22;99428.41;;;25.68
77355;BMP280;66422;51.202;19.936;2023-06-10T08:36:43;99439.17;;;26.94
77355;BMP280;66422;51.202;19.936;2023-06-10T08:52:03;99450.84;;;25.60
77355;BMP280;66422;51.202;19.936;2023-06-10T09:07:23;99449.73;;;26.50
77355;BMP280;66422;51.202;19.936;2023-06-10T09:22:44;99439.70;;;25.16
77355;BMP280;66422;51.202;19.936;2023-06-10T09:38:04;99438.34;;;26.10
77355;BMP280;66422;51.202;19.936;2023-06-10T09:53:24;99431.11;;;26.43
77355;BMP280;66422;51.202;19.936;2023-06-10T10:08:46;99426.30;;;26.09
77355;BMP280;66422;51.202;19.936;2023-06-10T10:39:36;99418.19;;;27.78
77355;BMP280;66422;51.202;19.936;2023-06-10T10:54:56;99400.74;;;27.23
77355;BMP280;66422;51.202;19.936;2023-06-10T11:10:16;99410.05;;;25.31
77355;BMP280;66422;51.202;19.936;2023-06-10T11:25:39;99392.90;;;26.29
77355;BMP280;66422;51.202;19.936;2023-06-10T11:41:01;99371.69;;;27.37
77355;BMP280;66422;51.202;19.936;2023-06-10T11:56:25;99384.11;;;26.68
77355;BMP280;66422;51.202;19.936;2023-06-10T12:11:48;99367.14;;;27.31
77355;BMP280;66422;51.202;19.936;2023-06-10T12:27:12;99361.23;;;26.20
77355;BMP280;66422;51.202;19.936;2023-06-10T12:42:32;99372.63;;;26.79
77355;BMP280;66422;51.202;19.936;2023-06-10T12:57:55;99364.25;;;27.88
77355;BMP280;66422;51.202;19.936;2023-06-10T13:13:16;99368.67;;;26.57
77355;BMP280;66422;51.202;19.936;2023-06-10T13:28:35;99371.07;;;25.64
77355;BMP280;66422;51.202;19.936;2023-06-10T13:43:55;99370.81;;;25.45
77355;BMP280;66422;51.202;19.936;2023-06-10T13:59:15;99373.81;;;26.19
77355;BMP280;66422;51.202;19.936;2023-06-10T14:14:34;99378.55;;;25.53
77355;BMP280;66422;51.202;19.936;2023-06-10T14:29:54;99375.39;;;25.58
77355;BMP280;66422;51.202;19.936;2023-06-10T14:45:14;99364.27;;;26.20
77355;BMP280;66422;51.202;19.936;2023-06-10T15:00:34;99366.94;;;26.88
77355;BMP280;66422;51.202;19.936;2023-06-10T15:15:54;99368.05;;;26.62
77355;BMP280;66422;51.202;19.936;2023-06-10T15:31:13;99397.59;;;24.49
77355;BMP280;66422;51.202;19.936;2023-06-10T15:46:34;99395.10;;;23.04
77355;BMP280;66422;51.202;19.936;2023-06-10T16:01:54;99426.86;;;22.28
77355;BMP280;66422;51.202;19.936;2023-06-10T16:17:14;99425.05;;;21.06
77355;BMP280;66422;51.202;19.936;2023-06-10T16:32:33;99433.61;;;21.41
77355;BMP280;66422;51.202;19.936;2023-06-10T16:47:53;99439.84;;;21.73
77355;BMP280;66422;51.202;19.936;2023-06-10T17:03:13;99445.52;;;22.72
77355;BMP280;66422;51.202;19.936;2023-06-10T17:18:33;99453.30;;;23.11
77355;BMP280;66422;51.202;19.936;2023-06-10T17:33:53;99467.45;;;23.34
77355;BMP280;66422;51.202;19.936;2023-06-10T17:49:12;99474.02;;;23.36
77355;BMP280;66422;51.202;19.936;2023-06-10T18:04:32;99496.60;;;24.67
77355;BMP280;66422;51.202;19.936;2023-06-10T18:19:52;99510.15;;;23.80
77355;BMP280;66422;51.202;19.936;2023-06-10T18:35:12;99526.68;;;22.51
77355;BMP280;66422;51.202;19.936;2023-06-10T18:50:32;99541.52;;;21.52
77355;BMP280;66422;51.202;19.936;2023-06-10T19:05:52;99558.58;;;21.03
77355;BMP280;66422;51.202;19.936;2023-06-10T19:21:12;99569.98;;;20.24
77355;BMP280;66422;51.202;19.936;2023-06-10T19:36:31;99584.21;;;19.26
77355;BMP280;66422;51.202;19.936;2023-06-10T19:51:51;99586.20;;;17.82
77355;BMP280;66422;51.202;19.936;2023-06-10T20:07:11;99590.33;;;18.17
77355;BMP280;66422;51.202;19.936;2023-06-10T20:22:31;99606.00;;;17.99
77355;BMP280;66422;51.202;19.936;2023-06-10T20:37:51;99603.15;;;17.85
77355;BMP280;66422;51.202;19.936;2023-06-10T20:53:10;99609.79;;;17.92
77355;BMP280;66422;51.202;19.936;2023-06-10T21:08:30;99613.00;;;17.54
77355;BMP280;66422;51.202;19.936;2023-06-10T21:23:50;99617.39;;;16.90
77355;BMP280;66422;51.202;19.936;2023-06-10T21:39:09;99625.84;;;16.64
77355;BMP280;66422;51.202;19.936;2023-06-10T21:54:30;99630.83;;;16.70
77355;BMP280;66422;51.202;19.936;2023-06-10T22:09:50;99640.70;;;16.73
77355;BMP280;66422;51.202;19.936;2023-06-10T22:25:10;99638.77;;;17.39
77355;BMP280;66422;51.202;19.936;2023-06-10T22:40:29;99649.53;;;17.52
77355;BMP280;66422;51.202;19.936;2023-06-10T22:55:49;99649.21;;;17.17
77355;BMP280;66422;51.202;19.936;2023-06-10T23:11:09;99652.49;;;16.84
77355;BMP280;66422;51.202;19.936;2023-06-10T23:26:28;99659.16;;;16.63
77355;BMP280;66422;51.202;19.936;2023-06-10T23:41:48;99645.65;;;16.31
77355;BMP280;66422;51.202;19.936;2023-06-10T23:57:07;99648.56;;;15.98
